< < Back
Terminal Aerodrome Forecast


Current Version              Previous Versions:   1  2  3  4  5  6  7  8  9  

Terminal Aerodrome Forecast

429
FTUS42 KCHS 261457 AAA
TAFSAV
TAF AMD
KSAV 261457Z 2615/2712 06010KT P6SM SCT020 BKN035
      TEMPO 2615/2618 SCT015 BKN025
     FM262100 09010KT P6SM SCT020 SCT060
     FM270500 VRB02KT P6SM FEW015=

Latest METAR

837
SAUS80 KWBC 261600 RRZ
MTRSAV
METAR KSAV 261453Z 09007KT 10SM SCT018 SCT027 BKN034 31/24 A3013 RMK AO2
SLP202 T03060239 51013 $


USA.gov is the U.S. government's official web portal to all federal, state and local government web resources and services.